CYVM

Qikiqtarjuaq Airport

Qikiqtarjuaq, Canada
METAR CYVM 181400Z 21015KT 15SM DRSN SKC M31/M34 A2985 RMK SLP109
Observed Flight Rules
Jan-18 @ 14:00 UTC (44 minutes ago) Visual Flight Rules
Wind Visibility Clouds Conditions
210° at 15 knots 15 miles
  • Clear skies
  • Low drifting
  • Snow
Temperatures Readings
Current -31°C / -24°F
Dewpoint -34°C / -29°F
Humidity 75%
Altimeter 29.85" Hg
Pressure 1010.9 hPa
Elevation 6
METAR CYVM 181400Z 21015KT 15SM DRSN SKC M31/M34 A2985 RMK SLP109
Observed Flight Rules
Jan-18 @ 14:00 UTC
(44 minutes ago)
VFR
Wind Visibility
210° at 15 knots 15 miles
Clouds
  • Clear skies
Conditions
  • Low drifting
  • Snow
Temperature Dewpoint
-31°C / -24°F -34°C / -29°F
Humidity Altimeter Pressure
75% 29.85" Hg 1010.9 hPa